Time;durP1;ratioP1;P1;durP2;ratioP2;P2;SDS_P1;SDS_P2;PMS_P1;PMS_P2;Temp;Humidity;BMP_temperature;BMP_pressure;BME280_temperature;BME280_humidity;BME280_pressure;Samples;Min_cycle;Max_cycle;Signal;HPM_P1;HPM_P2
2023/01/14 00:00:28;;;;;;;76.27;44.97;;;;;;;41.15;36.07;101000.03;5102914;28;20435;-87
2023/01/14 00:02:56;;;;;;;63.00;46.63;;;;;;;41.03;36.47;100999.91;5114359;27;20446;-87
2023/01/14 00:05:26;;;;;;;76.10;46.03;;;;;;;41.03;36.69;100992.53;5113133;28;20427;-85
2023/01/14 00:07:59;;;;;;;60.73;44.63;;;;;;;41.05;36.27;100993.00;5097876;28;20455;-89
2023/01/14 00:10:29;;;;;;;81.00;44.03;;;;;;;41.03;36.74;101005.34;5099823;28;20419;-92
2023/01/14 00:13:18;;;;;;;76.37;45.50;;;;;;;41.05;36.39;101003.09;5110022;28;20423;-93
2023/01/14 00:15:58;;;;;;;76.50;47.57;;;;;;;41.05;36.60;100987.56;5078864;28;20478;-92
2023/01/14 00:18:27;;;;;;;68.53;44.60;;;;;;;41.10;36.39;100980.34;5102270;28;20424;-90
2023/01/14 00:21:13;;;;;;;99.63;47.73;;;;;;;41.12;36.15;100980.81;5093468;28;20452;-90
2023/01/14 00:23:42;;;;;;;77.40;43.30;;;;;;;41.25;36.42;100980.63;5094467;28;20428;-92
2023/01/14 00:26:26;;;;;;;69.40;47.67;;;;;;;41.25;36.14;100968.91;5123124;27;20869;-91
2023/01/14 00:28:54;;;;;;;72.23;45.37;;;;;;;41.30;36.03;100961.38;5093347;28;20457;-93
2023/01/14 00:31:28;;;;;;;83.30;45.17;;;;;;;41.27;35.82;100967.47;5085246;28;20431;-90
2023/01/14 00:34:09;;;;;;;75.93;48.10;;;;;;;41.32;35.72;100959.16;5083320;28;20492;-79
2023/01/14 00:36:38;;;;;;;75.30;45.73;;;;;;;41.28;36.03;100962.84;5094138;28;20923;-87
2023/01/14 00:39:23;;;;;;;79.80;46.77;;;;;;;41.22;36.37;100958.69;5120392;28;20557;-85
2023/01/14 00:42:10;;;;;;;76.43;48.57;;;;;;;41.16;36.20;100944.47;5118689;28;20847;-90
2023/01/14 00:44:49;;;;;;;100.67;49.83;;;;;;;41.21;36.15;100949.72;5094508;28;20428;-89
2023/01/14 00:47:19;;;;;;;67.07;47.17;;;;;;;41.24;35.80;100948.28;5105127;28;20534;-90
2023/01/14 00:49:48;;;;;;;70.57;46.43;;;;;;;41.14;35.59;100951.38;5104423;28;20495;-90
2023/01/14 00:52:22;;;;;;;62.70;45.57;;;;;;;41.10;36.17;100942.25;5099865;28;20467;-91
2023/01/14 00:54:51;;;;;;;81.17;46.97;;;;;;;41.13;36.29;100945.13;5080486;28;20436;-89
2023/01/14 00:57:20;;;;;;;74.93;46.97;;;;;;;41.17;35.99;100943.34;5113466;28;20489;-90
2023/01/14 00:59:56;;;;;;;69.37;51.00;;;;;;;41.17;35.64;100935.19;5095613;27;20428;-89
2023/01/14 01:02:27;;;;;;;82.93;47.80;;;;;;;41.07;36.06;100927.41;5079884;28;20428;-89
2023/01/14 01:05:03;;;;;;;72.20;53.57;;;;;;;41.08;36.15;100929.78;5083032;28;20427;-90
2023/01/14 01:07:29;;;;;;;82.93;53.37;;;;;;;41.07;36.33;100930.13;5083319;28;20560;-90
2023/01/14 01:10:18;;;;;;;84.00;57.03;;;;;;;41.04;36.06;100926.09;5087326;28;20834;-88
2023/01/14 01:12:48;;;;;;;94.60;56.97;;;;;;;40.99;36.32;100923.56;5101393;28;20184;-93
2023/01/14 01:15:16;;;;;;;86.83;54.17;;;;;;;41.04;36.02;100930.75;5089515;28;20910;-92
2023/01/14 01:17:43;;;;;;;76.40;51.03;;;;;;;41.05;36.26;100927.69;5082767;28;20420;-93
2023/01/14 01:20:12;;;;;;;90.67;59.17;;;;;;;41.06;36.18;100923.06;5089904;28;20486;-91
2023/01/14 01:22:45;;;;;;;81.83;59.07;;;;;;;41.07;35.77;100911.88;5100743;28;20425;-82
2023/01/14 01:25:25;;;;;;;102.03;60.03;;;;;;;41.02;36.44;100916.69;5086544;28;20801;-84
2023/01/14 01:27:53;;;;;;;94.00;58.73;;;;;;;40.98;36.23;100921.97;5093134;28;20205;-86
2023/01/14 01:30:31;;;;;;;112.13;59.00;;;;;;;41.03;36.35;100912.84;5101290;28;20447;-85
2023/01/14 01:33:00;;;;;;;98.97;59.77;;;;;;;41.02;35.89;100912.03;5088246;28;20470;-94
2023/01/14 01:35:28;;;;;;;87.63;57.13;;;;;;;40.98;36.24;100915.72;5091204;27;20500;-92
2023/01/14 01:38:07;;;;;;;88.73;55.77;;;;;;;40.96;36.08;100910.63;5081590;28;20428;-91
2023/01/14 01:40:43;;;;;;;91.77;61.37;;;;;;;40.94;36.30;100907.41;5095428;28;20448;-89
2023/01/14 01:43:15;;;;;;;100.20;59.40;;;;;;;40.88;35.94;100899.72;5110214;28;20498;-90
2023/01/14 01:45:47;;;;;;;102.37;65.50;;;;;;;40.89;36.11;100904.06;5079744;28;20413;-81
2023/01/14 01:48:23;;;;;;;96.80;60.43;;;;;;;40.93;36.00;100897.66;5077038;28;20456;-82
2023/01/14 01:51:05;;;;;;;87.00;59.63;;;;;;;40.88;36.04;100905.16;5118982;28;20412;-83
2023/01/14 01:53:40;;;;;;;75.40;54.13;;;;;;;40.83;35.81;100886.31;5064295;28;20464;-85
2023/01/14 01:56:10;;;;;;;88.33;55.30;;;;;;;40.91;35.78;100886.31;5063341;28;20429;-93
2023/01/14 01:58:37;;;;;;;85.27;52.87;;;;;;;40.85;36.03;100884.88;5105076;27;20411;-86
2023/01/14 02:01:05;;;;;;;95.97;58.10;;;;;;;40.85;36.03;100870.47;5107873;28;20461;-84
2023/01/14 02:03:38;;;;;;;85.03;57.07;;;;;;;40.83;36.31;100881.69;5098791;28;20499;-86
2023/01/14 02:06:04;;;;;;;92.60;54.10;;;;;;;40.80;35.88;100882.31;5109390;27;20453;-85
2023/01/14 02:08:32;;;;;;;106.07;55.43;;;;;;;40.75;36.44;100875.13;5077311;28;20553;-80
2023/01/14 02:11:13;;;;;;;75.10;54.20;;;;;;;40.75;36.04;100874.34;5078328;28;20440;-83
2023/01/14 02:14:04;;;;;;;90.10;58.93;;;;;;;40.75;36.23;100879.78;5076505;28;20797;-93
2023/01/14 02:16:53;;;;;;;82.63;58.37;;;;;;;40.77;36.26;100880.28;5079860;28;20428;-90
2023/01/14 02:20:01;;;;;;;82.33;56.37;;;;;;;40.74;35.95;100883.63;5081097;28;20519;-92
2023/01/14 02:22:53;;;;;;;78.53;55.13;;;;;;;40.66;36.58;100882.53;5090725;28;20487;-81
2023/01/14 02:26:03;;;;;;;83.83;57.50;;;;;;;40.55;36.11;100873.91;5100591;28;20439;-90
2023/01/14 02:29:02;;;;;;;90.47;55.03;;;;;;;40.71;36.19;100873.41;5083167;28;20459;-92
2023/01/14 02:31:53;;;;;;;76.97;52.10;;;;;;;40.67;35.92;100873.25;5077451;28;20428;-92
2023/01/14 02:34:41;;;;;;;91.67;57.27;;;;;;;40.67;35.92;100865.09;5083655;28;20853;-81
2023/01/14 02:37:31;;;;;;;95.27;56.27;;;;;;;40.67;36.19;100870.53;5072283;28;20417;-88
2023/01/14 02:40:33;;;;;;;89.90;59.50;;;;;;;40.62;36.49;100870.69;5085440;28;20869;-85
2023/01/14 02:46:54;;;;;;;89.60;57.07;;;;;;;40.66;36.09;100877.09;5097810;28;20992;-86
2023/01/14 02:49:37;;;;;;;109.00;62.47;;;;;;;40.65;35.95;100878.22;5097057;28;20425;-86
2023/01/14 02:52:08;;;;;;;80.50;56.33;;;;;;;40.63;36.11;100875.00;5088842;28;21121;-82
2023/01/14 02:54:34;;;;;;;95.13;59.63;;;;;;;40.65;36.43;100880.94;5080779;28;20423;-83
2023/01/14 02:57:22;;;;;;;87.20;54.40;;;;;;;40.63;36.23;100882.38;5085369;28;20470;-86
2023/01/14 03:00:20;;;;;;;87.63;54.77;;;;;;;40.69;36.46;100879.16;5069053;28;20424;-84
2023/01/14 03:03:07;;;;;;;86.27;54.50;;;;;;;40.68;36.13;100877.56;5090578;28;20439;-84
2023/01/14 03:06:10;;;;;;;97.97;58.87;;;;;;;40.70;35.95;100880.78;5084855;28;20823;-92
2023/01/14 03:08:53;;;;;;;91.17;53.73;;;;;;;40.65;36.43;100878.22;5094035;27;20459;-84
2023/01/14 03:11:20;;;;;;;89.07;54.03;;;;;;;40.70;36.14;100877.22;5083482;28;20465;-82
2023/01/14 03:14:01;;;;;;;69.53;50.43;;;;;;;40.60;36.04;100872.97;5077145;28;20478;-82
2023/01/14 03:16:43;;;;;;;87.00;53.60;;;;;;;40.63;36.19;100879.66;5082800;28;20464;-84
2023/01/14 03:19:34;;;;;;;81.80;49.97;;;;;;;40.60;36.25;100878.41;5076099;28;20478;-82
2023/01/14 03:22:05;;;;;;;83.57;52.90;;;;;;;40.59;36.71;100876.81;5080064;28;20812;-86
2023/01/14 03:24:38;;;;;;;80.53;53.93;;;;;;;40.65;35.97;100880.94;5085864;28;20433;-84
2023/01/14 03:27:08;;;;;;;73.20;47.97;;;;;;;40.67;36.30;100883.34;5080018;28;20424;-86
2023/01/14 03:29:42;;;;;;;84.50;54.10;;;;;;;40.61;35.99;100888.16;5094487;28;20522;-84
2023/01/14 03:32:32;;;;;;;88.87;50.27;;;;;;;40.61;35.93;100882.69;5106348;28;20429;-85
2023/01/14 03:35:09;;;;;;;77.43;49.17;;;;;;;40.42;36.34;100876.81;5087925;28;20455;-85
2023/01/14 03:37:44;;;;;;;89.70;57.37;;;;;;;40.50;36.67;100884.97;5065992;28;20510;-85
2023/01/14 03:40:17;;;;;;;88.20;52.13;;;;;;;40.55;36.54;100886.72;5097694;28;20519;-87
2023/01/14 03:42:56;;;;;;;71.83;52.37;;;;;;;40.56;36.39;100891.03;5079103;28;20512;-85
2023/01/14 03:45:32;;;;;;;88.87;52.70;;;;;;;40.53;36.11;100888.97;5071109;28;20824;-86
2023/01/14 03:47:59;;;;;;;86.60;55.80;;;;;;;40.46;36.60;100894.09;5078179;28;20994;-84
2023/01/14 03:50:35;;;;;;;80.43;56.90;;;;;;;40.54;36.45;100894.09;5079714;28;20962;-86
2023/01/14 03:53:41;;;;;;;81.60;48.60;;;;;;;40.57;36.46;100905.41;5091477;28;20482;-86
2023/01/14 03:57:08;;;;;;;84.53;49.90;;;;;;;40.55;35.90;100903.03;5111399;28;20420;-85
2023/01/14 04:00:13;;;;;;;73.13;50.60;;;;;;;40.49;36.52;100907.84;5107036;28;20488;-83
2023/01/14 04:02:41;;;;;;;77.23;51.03;;;;;;;40.53;35.98;100910.72;5065621;28;20417;-83
2023/01/14 04:05:08;;;;;;;81.87;46.17;;;;;;;40.51;36.10;100919.19;5081107;28;20465;-84
2023/01/14 04:07:35;;;;;;;84.10;51.80;;;;;;;40.38;36.59;100919.34;5093304;28;20452;-85
2023/01/14 04:10:01;;;;;;;90.43;50.60;;;;;;;40.30;36.44;100912.81;5092968;28;20425;-83
2023/01/14 04:15:20;;;;;;;71.53;45.57;;;;;;;40.31;36.38;100927.19;5079257;28;20438;-89
2023/01/14 04:15:53;;;;;;;73.03;48.70;;;;;;;40.14;36.76;100926.06;5094017;28;20934;-87
2023/01/14 04:18:19;;;;;;;83.23;49.63;;;;;;;40.16;36.82;100931.19;5078553;28;20936;-84
2023/01/14 04:20:49;;;;;;;74.07;48.13;;;;;;;40.16;37.10;100929.28;5106457;28;20427;-87
2023/01/14 04:23:16;;;;;;;76.10;44.33;;;;;;;40.14;36.89;100936.94;5096576;28;20432;-83
2023/01/14 04:25:42;;;;;;;67.13;46.43;;;;;;;40.16;36.99;100933.91;5087804;28;20477;-89
2023/01/14 04:28:13;;;;;;;77.50;46.63;;;;;;;40.04;37.21;100942.72;5097158;28;20578;-90
2023/01/14 04:30:44;;;;;;;71.30;47.57;;;;;;;40.09;36.90;100931.69;5067018;28;20441;-81
2023/01/14 04:33:17;;;;;;;77.73;45.20;;;;;;;40.10;36.83;100941.44;5089410;28;20802;-83
2023/01/14 04:36:06;;;;;;;69.17;46.53;;;;;;;40.17;37.11;100943.66;5079962;28;20436;-86
2023/01/14 04:38:35;;;;;;;58.90;44.87;;;;;;;40.15;36.78;100949.44;5087412;28;20415;-83
2023/01/14 04:41:00;;;;;;;72.93;48.60;;;;;;;40.07;36.97;100950.19;5105362;28;20469;-81
2023/01/14 04:43:26;;;;;;;69.27;51.83;;;;;;;40.07;36.87;100955.63;5104702;28;20189;-85
2023/01/14 04:45:54;;;;;;;95.47;47.50;;;;;;;40.21;36.60;100952.78;5080224;28;20445;-84
2023/01/14 04:48:21;;;;;;;64.40;46.57;;;;;;;40.15;36.79;100957.59;5095791;28;20230;-84
2023/01/14 04:50:50;;;;;;;64.93;49.27;;;;;;;40.16;36.70;100955.66;5085903;28;20936;-86
2023/01/14 04:53:23;;;;;;;78.43;51.87;;;;;;;40.11;36.83;100953.09;5077324;28;20472;-84
2023/01/14 04:55:55;;;;;;;86.30;50.20;;;;;;;40.01;36.93;100949.53;5113508;28;20482;-86
2023/01/14 04:58:22;;;;;;;85.30;47.63;;;;;;;40.05;37.17;100954.38;5084250;28;20461;-93
2023/01/14 05:00:50;;;;;;;75.67;46.80;;;;;;;40.08;36.82;100965.38;5094925;28;20425;-92
2023/01/14 05:03:16;;;;;;;83.73;48.40;;;;;;;40.14;36.93;100966.81;5079020;28;20427;-92
2023/01/14 05:05:42;;;;;;;79.90;49.90;;;;;;;40.08;36.90;100965.38;5074618;28;20466;-85
2023/01/14 05:08:10;;;;;;;76.07;47.53;;;;;;;39.97;37.00;100970.31;5073938;28;20467;-85
2023/01/14 05:10:37;;;;;;;70.73;44.43;;;;;;;39.93;37.50;100973.97;5091921;28;20412;-85
2023/01/14 05:13:05;;;;;;;74.77;46.70;;;;;;;39.89;37.57;100978.44;5086857;28;20464;-86
2023/01/14 05:15:34;;;;;;;70.50;44.70;;;;;;;39.89;37.37;100970.28;5083621;28;20424;-87
2023/01/14 05:18:00;;;;;;;74.27;47.00;;;;;;;39.96;37.26;100978.75;5073575;28;20421;-86
2023/01/14 05:20:27;;;;;;;66.73;45.37;;;;;;;39.96;37.21;100979.59;5073625;28;20471;-86
2023/01/14 05:23:09;;;;;;;61.47;42.20;;;;;;;40.00;37.23;100983.25;5082683;28;20957;-85
2023/01/14 05:25:35;;;;;;;70.70;44.80;;;;;;;39.93;37.34;100995.72;5101291;28;20434;-83
2023/01/14 05:28:03;;;;;;;66.63;44.03;;;;;;;40.05;37.40;100987.78;5099257;28;20472;-87
2023/01/14 05:30:29;;;;;;;59.67;46.53;;;;;;;40.03;37.44;100989.97;5087800;28;20460;-83
2023/01/14 05:32:55;;;;;;;81.43;46.07;;;;;;;40.10;37.44;100993.06;5086244;28;20428;-85
2023/01/14 05:35:22;;;;;;;77.77;46.93;;;;;;;40.05;37.00;100993.19;5076481;28;20428;-86
2023/01/14 05:37:48;;;;;;;97.80;54.43;;;;;;;40.02;37.21;100997.34;5080359;28;20464;-82
2023/01/14 05:40:14;;;;;;;70.67;50.40;;;;;;;40.08;37.11;100997.19;5073316;28;20793;-82
2023/01/14 05:45:48;;;;;;;65.57;46.60;;;;;;;40.06;37.11;100999.44;5102490;28;20434;-83
2023/01/14 05:48:20;;;;;;;79.57;51.67;;;;;;;40.02;37.28;101010.09;5076482;28;20609;-83
2023/01/14 05:51:05;;;;;;;73.30;46.40;;;;;;;40.08;37.22;101006.13;5090376;28;20801;-84
2023/01/14 05:53:32;;;;;;;70.47;42.20;;;;;;;40.06;37.15;101016.53;5091241;28;20471;-84
2023/01/14 05:55:59;;;;;;;68.10;43.80;;;;;;;40.11;37.38;101021.03;5081889;28;20474;-84
2023/01/14 05:58:26;;;;;;;70.00;45.93;;;;;;;40.10;37.12;101024.88;5093837;28;20413;-85
2023/01/14 06:06:28;;;;;;;84.13;45.53;;;;;;;39.99;36.74;101033.28;5106856;27;20530;-85
2023/01/14 06:08:56;;;;;;;82.03;49.23;;;;;;;40.02;37.19;101034.53;5094934;28;20511;-85
2023/01/14 06:11:24;;;;;;;77.00;47.43;;;;;;;40.01;37.01;101046.53;5085811;27;20430;-87
2023/01/14 06:13:52;;;;;;;82.73;47.80;;;;;;;40.03;37.21;101047.03;5085344;28;20425;-85
2023/01/14 06:16:27;;;;;;;84.20;46.03;;;;;;;39.94;37.25;101046.19;5108014;27;20417;-84
2023/01/14 06:18:53;;;;;;;76.40;46.90;;;;;;;39.98;37.08;101053.41;5077931;27;20860;-84
2023/01/14 06:21:21;;;;;;;85.53;49.03;;;;;;;39.86;36.99;101057.84;5076988;28;20808;-84
2023/01/14 06:23:48;;;;;;;74.70;46.33;;;;;;;39.94;37.08;101059.78;5095059;28;20449;-80
2023/01/14 06:26:17;;;;;;;76.47;50.80;;;;;;;39.99;36.99;101073.22;5095422;27;20472;-84
2023/01/14 06:28:43;;;;;;;79.93;45.47;;;;;;;39.96;37.00;101071.13;5079397;28;20838;-83
2023/01/14 06:31:10;;;;;;;72.30;48.67;;;;;;;39.97;36.86;101078.97;5102050;27;20433;-81
2023/01/14 06:33:36;;;;;;;80.03;51.27;;;;;;;40.00;37.08;101075.63;5100690;28;20408;-84
2023/01/14 06:36:02;;;;;;;88.27;49.97;;;;;;;40.07;37.08;101088.78;5079474;28;20428;-82
2023/01/14 06:38:29;;;;;;;72.53;45.30;;;;;;;40.06;36.82;101095.31;5084878;28;20452;-79
2023/01/14 06:41:01;;;;;;;79.43;49.47;;;;;;;40.07;37.06;101093.41;5109590;27;20519;-84
2023/01/14 06:43:27;;;;;;;100.33;53.70;;;;;;;40.04;37.17;101097.56;5078474;28;20482;-87
2023/01/14 06:45:54;;;;;;;71.97;50.00;;;;;;;39.98;37.08;101098.78;5080964;28;20496;-86
2023/01/14 06:48:21;;;;;;;106.23;59.73;;;;;;;39.73;37.35;101103.81;5088613;28;20475;-86
2023/01/14 06:50:48;;;;;;;91.53;56.30;;;;;;;39.67;37.40;101110.50;5087454;28;20428;-90
2023/01/14 06:53:17;;;;;;;71.47;53.90;;;;;;;39.64;37.66;101113.81;5094002;28;20474;-90
2023/01/14 06:55:43;;;;;;;86.10;55.70;;;;;;;39.70;37.69;101118.00;5092551;28;20431;-89
2023/01/14 06:58:09;;;;;;;84.50;55.33;;;;;;;39.60;38.20;101122.91;5088698;28;20447;-86
2023/01/14 07:00:36;;;;;;;93.67;57.30;;;;;;;39.60;37.79;101123.72;5090302;28;20459;-96
2023/01/14 07:03:02;;;;;;;105.23;53.07;;;;;;;39.67;37.66;101128.72;5091137;27;20417;-88
2023/01/14 07:05:28;;;;;;;89.07;52.73;;;;;;;39.86;37.05;101131.19;5089896;28;20424;-88
2023/01/14 07:07:54;;;;;;;80.17;56.90;;;;;;;39.75;37.80;101136.88;5090952;28;20809;-94
2023/01/14 07:10:20;;;;;;;97.40;55.87;;;;;;;39.84;37.28;101144.25;5088956;28;20932;-91
2023/01/14 07:12:49;;;;;;;92.83;57.93;;;;;;;39.99;36.87;101147.38;5077654;28;20535;-84
2023/01/14 07:15:22;;;;;;;92.10;62.00;;;;;;;39.89;37.10;101150.38;5084600;28;20523;-84
2023/01/14 07:17:50;;;;;;;92.00;52.57;;;;;;;39.99;37.20;101152.00;5079324;28;20431;-86
2023/01/14 07:20:17;;;;;;;96.37;55.27;;;;;;;39.97;37.01;101156.97;5073807;28;20453;-91
2023/01/14 07:22:43;;;;;;;90.50;53.90;;;;;;;39.99;36.87;101157.44;5078402;28;20428;-85
2023/01/14 07:25:09;;;;;;;95.13;54.83;;;;;;;39.87;36.98;101163.47;5083117;28;20438;-84
2023/01/14 07:27:35;;;;;;;98.13;54.80;;;;;;;39.90;36.75;101171.00;5059461;22;20473;-88
2023/01/14 07:30:01;;;;;;;77.57;51.30;;;;;;;39.94;36.80;101187.47;5005788;28;20429;-79
2023/01/14 07:32:27;;;;;;;85.50;50.83;;;;;;;40.02;36.87;101178.53;5007666;28;20945;-92
2023/01/14 07:34:56;;;;;;;83.13;54.20;;;;;;;40.00;36.68;101181.56;5018398;28;20507;-88
2023/01/14 07:37:30;;;;;;;92.43;55.63;;;;;;;40.02;36.53;101189.41;5005058;28;20432;-90
2023/01/14 07:39:56;;;;;;;82.03;50.47;;;;;;;40.08;36.56;101179.22;4998162;28;20441;-86
2023/01/14 07:42:23;;;;;;;100.07;56.97;;;;;;;40.18;36.41;101185.19;4996662;28;20464;-87
2023/01/14 07:44:49;;;;;;;94.37;54.80;;;;;;;40.15;36.33;101191.28;5010001;28;20189;-87
2023/01/14 07:47:16;;;;;;;95.87;53.80;;;;;;;40.16;36.50;101192.06;5001611;28;20452;-88
2023/01/14 07:49:42;;;;;;;91.87;56.07;;;;;;;40.15;36.70;101204.88;5004022;28;20185;-89
2023/01/14 07:52:12;;;;;;;91.57;55.63;;;;;;;40.12;36.86;101207.41;5007329;28;20433;-89
2023/01/14 07:54:39;;;;;;;96.03;53.17;;;;;;;40.12;36.61;101205.47;5018099;28;20506;-90
2023/01/14 07:57:07;;;;;;;83.77;55.30;;;;;;;40.02;37.28;101205.72;4995886;28;20456;-87
2023/01/14 07:59:33;;;;;;;101.73;61.80;;;;;;;39.98;36.80;101210.19;5009639;28;21083;-90
2023/01/14 08:01:59;;;;;;;99.77;57.43;;;;;;;39.76;37.61;101214.53;5008893;28;20429;-89
2023/01/14 08:04:25;;;;;;;79.10;54.07;;;;;;;39.79;37.41;101209.59;5025584;22;20236;-87
2023/01/14 08:06:51;;;;;;;80.20;51.40;;;;;;;39.85;37.37;101213.78;4990125;28;20677;-89
2023/01/14 08:09:17;;;;;;;95.47;59.23;;;;;;;39.81;37.29;101218.22;4985604;28;20217;-81
2023/01/14 08:11:44;;;;;;;80.47;49.63;;;;;;;39.71;37.51;101211.94;4980346;28;20511;-81
2023/01/14 08:14:10;;;;;;;72.53;53.43;;;;;;;39.68;37.41;101219.91;4981742;28;20433;-77
2023/01/14 08:16:36;;;;;;;82.47;48.33;;;;;;;39.61;37.54;101216.84;4984563;28;20432;-78
2023/01/14 08:19:02;;;;;;;82.97;48.37;;;;;;;39.63;37.60;101223.56;4988062;28;20421;-79
2023/01/14 08:21:28;;;;;;;75.27;51.00;;;;;;;39.63;37.90;101228.97;4982698;28;20432;-82
2023/01/14 08:23:54;;;;;;;83.13;50.73;;;;;;;39.76;37.27;101219.16;5005079;28;20510;-76
2023/01/14 08:26:20;;;;;;;80.87;48.80;;;;;;;39.72;37.49;101223.63;4994950;28;20189;-76
2023/01/14 08:28:45;;;;;;;66.27;46.50;;;;;;;39.85;37.50;101227.38;5001117;28;20198;-76
2023/01/14 08:31:15;;;;;;;73.80;52.63;;;;;;;39.89;37.42;101220.19;5000558;28;20630;-79
2023/01/14 08:33:43;;;;;;;106.43;54.27;;;;;;;40.04;37.16;101217.13;5006319;28;20429;-78
2023/01/14 08:36:12;;;;;;;89.57;51.73;;;;;;;40.09;36.57;101222.41;4982848;28;20951;-78
2023/01/14 08:38:40;;;;;;;87.80;51.10;;;;;;;40.04;36.57;101219.84;4986645;28;20458;-81
2023/01/14 08:41:08;;;;;;;84.97;51.90;;;;;;;40.06;36.77;101216.78;4984430;28;20457;-88
2023/01/14 08:43:34;;;;;;;71.83;49.17;;;;;;;40.13;36.73;101215.22;4984842;28;20941;-88
2023/01/14 08:46:01;;;;;;;88.63;52.00;;;;;;;40.21;36.37;101211.75;4992358;28;20452;-89
2023/01/14 08:48:28;;;;;;;83.50;48.67;;;;;;;40.28;35.64;101203.94;4986014;28;20491;-87
2023/01/14 08:51:00;;;;;;;101.10;55.67;;;;;;;40.38;35.61;101204.75;4988406;28;20515;-90
2023/01/14 08:53:30;;;;;;;88.10;48.70;;;;;;;40.51;35.46;101209.31;4976775;28;20491;-87
2023/01/14 08:55:58;;;;;;;75.73;51.50;;;;;;;40.20;35.74;101199.25;5000111;28;20453;-82
2023/01/14 08:58:24;;;;;;;100.33;53.87;;;;;;;40.20;35.79;101191.09;4995304;28;20422;-82
2023/01/14 09:00:55;;;;;;;85.97;45.30;;;;;;;40.21;35.46;101203.59;4978171;28;20504;-81
2023/01/14 09:03:22;;;;;;;65.27;43.20;;;;;;;40.17;35.56;101197.19;4985914;28;21077;-81
2023/01/14 09:05:48;;;;;;;68.13;41.10;;;;;;;40.24;35.14;101207.59;4988314;28;20563;-77
2023/01/14 09:19:15;;;;;;;71.33;46.10;;;;;;;40.62;34.27;101207.91;5008710;28;20440;-89
2023/01/14 09:21:41;;;;;;;69.43;43.10;;;;;;;40.76;33.15;101192.25;4993740;28;20452;-86
2023/01/14 09:24:07;;;;;;;72.53;41.87;;;;;;;40.79;32.70;101190.81;4996877;28;20460;-84
2023/01/14 09:26:32;;;;;;;106.57;48.97;;;;;;;40.65;32.67;101180.09;5010579;28;20454;-87
2023/01/14 09:28:58;;;;;;;78.93;43.37;;;;;;;40.85;33.08;101175.94;4987656;28;20502;-85
2023/01/14 09:31:24;;;;;;;88.07;42.83;;;;;;;40.91;31.95;101176.63;4997297;28;20182;-82
2023/01/14 09:33:50;;;;;;;67.97;38.27;;;;;;;40.81;30.95;101173.03;4984474;28;20201;-86
2023/01/14 09:36:16;;;;;;;61.73;34.97;;;;;;;40.92;30.38;101170.84;5005488;28;20205;-86
2023/01/14 09:38:42;;;;;;;76.43;41.23;;;;;;;40.92;29.78;101164.59;4985532;28;20429;-86
2023/01/14 09:41:27;;;;;;;87.67;45.00;;;;;;;40.96;29.70;101171.03;4992047;28;20704;-85
2023/01/14 09:43:54;;;;;;;82.47;42.83;;;;;;;40.95;29.47;101163.97;4989886;28;20984;-85
2023/01/14 09:46:26;;;;;;;76.00;42.03;;;;;;;40.90;28.94;101158.66;4983012;28;20423;-82
2023/01/14 09:48:55;;;;;;;100.97;44.80;;;;;;;40.90;28.82;101155.94;4997035;28;21035;-86
2023/01/14 09:51:38;;;;;;;86.37;48.00;;;;;;;41.13;28.36;101146.53;4996269;28;20459;-86
2023/01/14 09:54:30;;;;;;;86.87;51.07;;;;;;;41.20;28.18;101154.19;5001695;28;20426;-83
2023/01/14 09:57:11;;;;;;;105.43;46.53;;;;;;;41.14;27.04;101155.50;5005623;28;20950;-86
2023/01/14 10:00:00;;;;;;;74.60;42.67;;;;;;;41.25;26.40;101152.13;4991746;28;20805;-85
2023/01/14 10:02:45;;;;;;;81.27;46.90;;;;;;;41.32;25.85;101147.00;5008906;28;20951;-85
2023/01/14 10:05:32;;;;;;;85.17;45.70;;;;;;;41.41;25.97;101141.53;5009300;28;20579;-86
2023/01/14 10:08:02;;;;;;;74.60;42.90;;;;;;;41.34;25.60;101135.78;4994021;28;20988;-85
2023/01/14 10:10:43;;;;;;;81.97;42.87;;;;;;;41.42;25.72;101136.88;4991109;28;20416;-85
2023/01/14 10:13:17;;;;;;;97.00;42.10;;;;;;;41.51;25.28;101134.94;5006886;28;20416;-85
2023/01/14 10:15:55;;;;;;;82.80;41.70;;;;;;;41.45;24.74;101130.81;5007390;28;20432;-83
2023/01/14 10:18:39;;;;;;;80.20;40.77;;;;;;;41.29;23.56;101128.56;4990957;28;20778;-86
2023/01/14 10:21:18;;;;;;;69.10;42.30;;;;;;;41.55;23.91;101123.06;4986832;28;20433;-87
2023/01/14 10:23:44;;;;;;;70.60;43.07;;;;;;;41.74;22.53;101121.88;4990429;28;20428;-86
2023/01/14 10:26:19;;;;;;;58.13;38.33;;;;;;;41.66;22.76;101123.50;4992602;28;20527;-83
2023/01/14 10:28:51;;;;;;;55.63;33.73;;;;;;;41.66;22.59;101118.06;4998923;28;20516;-85
2023/01/14 10:31:28;;;;;;;66.73;33.83;;;;;;;41.76;22.36;101120.47;5017800;28;20431;-83
2023/01/14 10:33:54;;;;;;;77.93;37.33;;;;;;;41.74;21.84;101111.84;5002609;28;20551;-82
2023/01/14 10:36:24;;;;;;;63.33;35.30;;;;;;;41.73;19.98;101110.19;4978755;28;21027;-85
2023/01/14 10:38:51;;;;;;;80.57;34.77;;;;;;;41.95;20.17;101108.38;4996645;28;20424;-87
2023/01/14 10:41:48;;;;;;;68.93;31.60;;;;;;;42.05;19.59;101097.88;4998653;28;20527;-85
2023/01/14 10:44:16;;;;;;;71.83;30.40;;;;;;;42.08;19.60;101096.44;5008887;28;20424;-88
2023/01/14 10:46:45;;;;;;;84.17;35.73;;;;;;;42.24;18.80;101094.75;5011014;28;20806;-86
2023/01/14 10:49:37;;;;;;;55.97;32.70;;;;;;;42.26;17.55;101084.31;4995468;28;20472;-79
2023/01/14 10:52:25;;;;;;;75.93;35.07;;;;;;;42.43;17.46;101085.31;4986366;28;20516;-87
2023/01/14 10:55:00;;;;;;;66.90;31.47;;;;;;;42.50;17.29;101077.41;4989411;28;20460;-89
2023/01/14 10:57:29;;;;;;;53.53;33.37;;;;;;;42.52;17.74;101066.94;4990875;28;20433;-89
2023/01/14 10:59:57;;;;;;;73.93;30.53;;;;;;;42.40;15.35;101060.28;4993053;28;20420;-81
2023/01/14 11:02:48;;;;;;;51.53;29.30;;;;;;;42.47;14.59;101061.69;5001394;28;20425;-82
2023/01/14 11:05:35;;;;;;;67.00;27.23;;;;;;;42.48;15.48;101060.56;4979871;28;20894;-83
2023/01/14 11:08:27;;;;;;;69.73;32.53;;;;;;;42.54;14.96;101049.13;4992027;28;20457;-86
2023/01/14 11:10:59;;;;;;;63.40;33.90;;;;;;;42.48;15.08;101044.19;4961213;28;20514;-82
2023/01/14 11:13:27;;;;;;;60.57;29.20;;;;;;;42.63;15.65;101043.63;4976024;28;20429;-84
2023/01/14 11:15:56;;;;;;;81.90;31.73;;;;;;;42.61;15.13;101040.44;4977366;28;20835;-84
2023/01/14 11:18:30;;;;;;;93.57;38.20;;;;;;;42.55;15.69;101037.09;4985039;28;20422;-84
2023/01/14 11:21:24;;;;;;;99.20;40.07;;;;;;;42.34;15.71;101023.47;4995232;28;20425;-90
2023/01/14 11:24:35;;;;;;;52.00;28.87;;;;;;;42.51;15.93;101017.06;4980544;28;20828;-88
2023/01/14 11:27:10;;;;;;;61.80;32.50;;;;;;;42.82;15.54;101016.63;4990319;28;20572;-83
2023/01/14 11:29:45;;;;;;;112.43;51.47;;;;;;;42.71;15.23;101023.63;4994608;28;20996;-83
2023/01/14 11:32:24;;;;;;;85.77;37.53;;;;;;;42.53;15.64;101016.72;4980437;28;20424;-85
2023/01/14 11:34:55;;;;;;;78.47;38.17;;;;;;;42.75;15.65;100999.22;4991763;28;20468;-84
2023/01/14 11:37:41;;;;;;;78.07;45.80;;;;;;;42.62;15.35;100987.47;4989819;28;20438;-86
2023/01/14 11:43:25;;;;;;;81.10;44.83;;;;;;;42.91;15.25;100984.59;4970037;28;20409;-82
2023/01/14 11:46:41;;;;;;;91.33;45.03;;;;;;;42.97;15.63;100984.38;4979366;28;20421;-91
2023/01/14 11:49:39;;;;;;;125.73;51.97;;;;;;;43.13;15.75;100977.16;4952813;28;20557;-89
2023/01/14 11:52:21;;;;;;;128.17;51.70;;;;;;;43.12;14.67;100965.44;4952365;28;20808;-89
2023/01/14 11:55:47;;;;;;;;;;;;;;;;;;;;;
2023/01/14 11:58:43;;;;;;;75.27;34.97;;;;;;;43.24;14.98;100953.72;4996759;28;20482;-92
2023/01/14 12:01:38;;;;;;;70.33;30.90;;;;;;;43.35;14.89;100949.41;5006112;28;20471;-89
2023/01/14 12:04:15;;;;;;;75.93;32.57;;;;;;;43.41;14.94;100955.47;4987425;28;20426;-87
2023/01/14 12:06:54;;;;;;;87.50;41.70;;;;;;;43.36;15.16;100944.72;4987660;28;20429;-86